createdAt,value
2022-12-23T06:39:35.860Z,100952.59
2022-12-23T06:42:03.614Z,100950.81
2022-12-23T06:44:31.218Z,100951.66
2022-12-23T06:46:58.846Z,100956.84
2022-12-23T06:49:26.482Z,100947.28
2022-12-23T06:51:54.525Z,100960.25
2022-12-23T06:54:22.316Z,100956.81
2022-12-23T06:56:51.434Z,100950.69
2022-12-23T06:59:19.016Z,100929.88
2022-12-23T07:01:47.171Z,100952.34
2022-12-23T07:04:15.016Z,100946.25
2022-12-23T07:06:42.924Z,100943.56
2022-12-23T07:09:10.814Z,100942.66
2022-12-23T07:11:38.693Z,100944.34
2022-12-23T07:14:08.030Z,100939.94
2022-12-23T07:16:36.002Z,100945.09
2022-12-23T07:19:04.587Z,100958.91
2022-12-23T07:21:32.175Z,100959.66
2022-12-23T07:24:00.135Z,100954.31
2022-12-23T07:26:28.698Z,100961.19
2022-12-23T07:28:56.334Z,100971.44
2022-12-23T07:31:25.540Z,100969.59
2022-12-23T07:33:53.364Z,100974.75
2022-12-23T07:36:24.307Z,100977.31
2022-12-23T07:38:52.069Z,100978.16
2022-12-23T07:41:20.259Z,100976.38
2022-12-23T07:43:47.842Z,100974.53
2022-12-23T07:46:15.669Z,100975.31
2022-12-23T07:48:45.011Z,100974.41
2022-12-23T07:51:12.830Z,100977.94
2022-12-23T07:53:40.510Z,100985.75
2022-12-23T07:56:08.706Z,100984.84
2022-12-23T07:58:36.305Z,100975.97
2022-12-23T08:01:05.955Z,100974.91
2022-12-23T08:03:34.794Z,100964.34
2022-12-23T08:06:06.228Z,100959.03
2022-12-23T08:08:35.318Z,100955.50
2022-12-23T08:11:05.140Z,100938.91
2022-12-23T08:13:34.299Z,100944.97
2022-12-23T08:16:04.162Z,100936.06
2022-12-23T08:18:33.798Z,100939.25
2022-12-23T08:21:05.347Z,100937.34
2022-12-23T08:23:33.673Z,100938.22
2022-12-23T08:26:03.555Z,100923.44
2022-12-23T08:28:32.357Z,100909.56
2022-12-23T08:31:05.223Z,100924.22
2022-12-23T08:33:34.361Z,100926.81
2022-12-23T08:36:04.559Z,100934.63
2022-12-23T08:38:32.626Z,100918.75
2022-12-23T08:41:00.688Z,100919.53
2022-12-23T08:43:33.744Z,100918.56
2022-12-23T08:46:03.637Z,100917.91
2022-12-23T08:48:32.063Z,100900.66
2022-12-23T08:51:04.876Z,100907.75
2022-12-23T08:53:36.025Z,100912.09
2022-12-23T08:56:06.335Z,100904.34
2022-12-23T08:58:36.674Z,100907.88
2022-12-23T09:01:05.455Z,100913.88
2022-12-23T09:03:33.610Z,100909.34
2022-12-23T09:06:06.324Z,100909.16
2022-12-23T09:08:35.431Z,100903.03
2022-12-23T09:11:03.806Z,100885.59
2022-12-23T09:13:35.656Z,100894.91
2022-12-23T09:16:04.754Z,100878.34
2022-12-23T09:18:32.441Z,100876.34
2022-12-23T09:21:01.779Z,100880.56
2022-12-23T09:23:31.736Z,100871.69
2022-12-23T09:25:59.629Z,100867.09
2022-12-23T09:28:27.519Z,100858.16
2022-12-23T09:30:55.372Z,100850.13
2022-12-23T09:33:23.145Z,100856.09
2022-12-23T09:35:51.774Z,100847.03
2022-12-23T09:38:19.685Z,100845.22
2022-12-23T09:40:48.683Z,100833.75
2022-12-23T09:43:25.771Z,100821.38
2022-12-23T09:46:04.367Z,100828.56
2022-12-23T09:48:36.935Z,100829.53
2022-12-23T09:51:05.993Z,100833.06
2022-12-23T09:53:45.956Z,100835.66
2022-12-23T09:56:22.597Z,100834.63
2022-12-23T09:58:58.099Z,100831.03
2022-12-23T10:01:33.007Z,100835.31
2022-12-23T16:19:40.767Z,100855.41
2022-12-23T16:22:25.637Z,100865.00
2022-12-23T16:25:00.856Z,100850.28
2022-12-23T16:27:35.878Z,100852.03
2022-12-23T16:30:15.473Z,100858.06
2022-12-23T16:32:50.314Z,100864.13
2022-12-23T16:35:31.391Z,100864.13
2022-12-23T16:38:15.892Z,100871.94
2022-12-23T16:40:44.999Z,100871.06
2022-12-23T16:43:13.781Z,100869.31
2022-12-23T16:45:44.532Z,100856.31
2022-12-23T16:48:25.265Z,100866.69
2022-12-23T16:50:55.139Z,100866.72
2022-12-23T16:53:22.820Z,100864.09
2022-12-23T16:55:55.328Z,100859.72
2022-12-23T16:58:27.921Z,100862.28
2022-12-23T17:00:57.211Z,100859.69
2022-12-23T17:03:24.783Z,100861.44
2022-12-23T17:05:53.333Z,100868.31
2022-12-23T17:08:24.890Z,100860.50
2022-12-23T17:10:52.666Z,100853.47
2022-12-23T17:13:20.432Z,100848.22
2022-12-23T17:15:49.380Z,100839.59
2022-12-23T17:18:18.471Z,100830.09
2022-12-23T17:20:49.128Z,100834.41
2022-12-23T17:23:26.511Z,100844.00
2022-12-23T17:25:54.462Z,100827.53
2022-12-23T17:28:22.692Z,100848.31
2022-12-23T17:30:55.045Z,100851.72
2022-12-23T17:33:28.020Z,100848.22
2022-12-23T17:35:55.978Z,100848.22
2022-12-23T17:38:24.265Z,100852.47
2022-12-23T17:40:52.006Z,100862.03
2022-12-23T17:43:22.043Z,100852.47
2022-12-23T17:45:51.929Z,100851.56
2022-12-23T17:48:23.215Z,100857.63
2022-12-23T17:50:56.746Z,100851.50
2022-12-23T17:53:24.306Z,100853.22
2022-12-23T17:55:52.208Z,100847.09
2022-12-23T17:58:20.927Z,100843.63
2022-12-23T18:00:48.848Z,100847.94
2022-12-23T18:03:22.316Z,100847.06
2022-12-23T18:05:57.444Z,100845.38
2022-12-23T18:08:30.960Z,100843.66
2022-12-23T18:10:59.699Z,100852.41
2022-12-23T18:13:27.377Z,100852.38
2022-12-23T18:15:55.232Z,100852.34
2022-12-23T18:18:31.334Z,100846.25
2022-12-23T18:21:03.409Z,100844.53
2022-12-23T18:23:33.906Z,100848.03
2022-12-23T18:26:01.700Z,100843.69
2022-12-23T18:28:29.669Z,100842.84
2022-12-23T18:31:01.004Z,100844.53
2022-12-23T18:33:28.962Z,100841.94
2022-12-23T18:35:56.839Z,100832.34
2022-12-23T18:38:27.514Z,100833.19
2022-12-23T18:40:56.790Z,100832.28
2022-12-23T18:43:25.411Z,100830.47
2022-12-23T18:45:54.134Z,100835.69
2022-12-23T18:48:28.292Z,100839.09
2022-12-23T18:50:56.208Z,100827.75
2022-12-23T18:53:25.684Z,100830.34
2022-12-23T18:55:54.340Z,100835.56
2022-12-23T18:58:24.269Z,100822.53
2022-12-23T19:00:52.406Z,100834.66
2022-12-23T19:03:25.898Z,100827.69
2022-12-23T19:05:57.067Z,100821.56
2022-12-23T19:08:27.697Z,100821.53
2022-12-23T19:10:55.966Z,100815.41
2022-12-23T19:13:25.501Z,100816.31
2022-12-23T19:15:53.571Z,100823.28
2022-12-23T19:18:22.195Z,100821.56
2022-12-23T19:20:51.611Z,100825.06
2022-12-23T19:23:21.960Z,100826.81
2022-12-23T19:25:55.241Z,100815.53
2022-12-23T19:28:27.373Z,100823.38
2022-12-23T19:30:55.363Z,100824.31
2022-12-23T19:33:22.981Z,100806.28
2022-12-23T19:35:50.745Z,100821.94
2022-12-23T19:38:18.447Z,100829.81
2022-12-23T19:40:56.485Z,100828.13
2022-12-23T19:43:24.270Z,100829.06
